Time;durP1;ratioP1;P1;durP2;ratioP2;P2;SDS_P1;SDS_P2;PMS_P1;PMS_P2;Temp;Humidity;BMP_temperature;BMP_pressure;BME280_temperature;BME280_humidity;BME280_pressure;Samples;Min_cycle;Max_cycle;Signal;HPM_P1;HPM_P2
2023/07/18 00:00:38;;;;;;;7.47;4.95;;;20.90;99.90;;;;;;5117012;27;20019;-75
2023/07/18 00:03:05;;;;;;;6.88;4.97;;;20.90;99.90;;;;;;5135022;27;20020;-75
2023/07/18 00:05:35;;;;;;;5.38;4.18;;;20.90;99.90;;;;;;5135000;27;20094;-75
2023/07/18 00:08:01;;;;;;;6.40;4.50;;;20.90;99.90;;;;;;5135027;27;20068;-75
2023/07/18 00:10:27;;;;;;;5.13;3.78;;;20.90;99.90;;;;;;5135101;27;20035;-75
2023/07/18 00:12:52;;;;;;;6.55;4.05;;;20.90;99.90;;;;;;5134761;27;20051;-75
2023/07/18 00:15:18;;;;;;;8.25;4.50;;;21.00;99.90;;;;;;5134824;27;20480;-75
2023/07/18 00:17:44;;;;;;;5.97;4.30;;;21.10;99.90;;;;;;5134668;27;20034;-75
2023/07/18 00:20:17;;;;;;;7.40;4.07;;;21.10;99.90;;;;;;5134757;27;20047;-75
2023/07/18 00:22:44;;;;;;;6.22;3.78;;;21.20;99.90;;;;;;5135148;27;20024;-75
2023/07/18 00:25:13;;;;;;;7.05;4.25;;;21.20;99.90;;;;;;5134814;27;20029;-75
2023/07/18 00:27:40;;;;;;;7.25;4.30;;;21.20;99.90;;;;;;5134562;27;20023;-75
2023/07/18 00:30:12;;;;;;;5.53;3.83;;;21.20;99.90;;;;;;5116053;27;20031;-75
2023/07/18 00:32:38;;;;;;;6.45;4.63;;;21.20;99.90;;;;;;5152518;27;20492;-75
2023/07/18 00:35:04;;;;;;;6.72;4.38;;;21.10;99.90;;;;;;5155505;27;20042;-75
2023/07/18 00:37:31;;;;;;;5.97;4.20;;;21.10;99.90;;;;;;5136616;27;20083;-75
2023/07/18 00:39:57;;;;;;;8.05;4.82;;;21.10;99.90;;;;;;5155249;27;20041;-75
2023/07/18 00:42:23;;;;;;;5.60;3.90;;;21.10;99.90;;;;;;5155228;27;20384;-75
2023/07/18 00:44:49;;;;;;;6.40;4.15;;;21.10;99.90;;;;;;5155139;27;20030;-75
2023/07/18 00:47:16;;;;;;;6.95;3.88;;;21.10;99.90;;;;;;5136492;27;20132;-75
2023/07/18 00:49:43;;;;;;;7.55;4.15;;;21.10;99.90;;;;;;5154999;27;20030;-75
2023/07/18 00:52:10;;;;;;;5.00;4.28;;;21.00;99.90;;;;;;5136425;27;20027;-75
2023/07/18 00:54:37;;;;;;;7.38;3.75;;;21.00;99.90;;;;;;5155276;27;20019;-75
2023/07/18 00:57:02;;;;;;;7.22;3.85;;;21.00;99.90;;;;;;5154980;27;20109;-75
2023/07/18 00:59:30;;;;;;;6.03;3.95;;;21.10;99.90;;;;;;5154810;27;20110;-75
2023/07/18 01:01:56;;;;;;;6.47;4.38;;;21.10;99.90;;;;;;5139793;27;20019;-75
2023/07/18 01:04:22;;;;;;;6.60;4.38;;;21.10;99.90;;;;;;5134121;28;20504;-75
2023/07/18 01:06:48;;;;;;;6.15;4.05;;;21.10;99.90;;;;;;5134153;28;20027;-75
2023/07/18 01:09:14;;;;;;;6.38;4.32;;;21.10;99.90;;;;;;5134180;28;20019;-75
2023/07/18 01:11:40;;;;;;;7.20;3.78;;;21.10;99.90;;;;;;5115854;28;20058;-75
2023/07/18 01:14:05;;;;;;;7.03;4.30;;;21.10;99.90;;;;;;5134147;28;20508;-75
2023/07/18 01:16:31;;;;;;;6.55;3.80;;;21.10;99.90;;;;;;5134158;28;20031;-75
2023/07/18 01:18:57;;;;;;;6.43;4.10;;;21.10;99.90;;;;;;5133917;28;20038;-75
2023/07/18 01:21:23;;;;;;;5.45;3.97;;;21.10;99.90;;;;;;5133936;28;20027;-75
2023/07/18 01:23:49;;;;;;;5.40;3.90;;;21.00;99.90;;;;;;5115985;28;20031;-75
2023/07/18 01:26:14;;;;;;;7.47;4.25;;;21.00;99.90;;;;;;5133980;28;20046;-75
2023/07/18 01:28:40;;;;;;;8.90;4.40;;;21.00;99.90;;;;;;5133920;28;20480;-75
2023/07/18 01:31:06;;;;;;;7.95;4.45;;;21.00;99.90;;;;;;5133926;28;20031;-75
2023/07/18 01:33:33;;;;;;;6.43;3.90;;;20.90;99.90;;;;;;5133830;28;20034;-75
2023/07/18 01:35:59;;;;;;;6.90;4.28;;;20.90;99.90;;;;;;5133917;28;20045;-75
2023/07/18 01:38:29;;;;;;;7.03;4.25;;;20.90;99.90;;;;;;5133272;28;20536;-75
2023/07/18 01:40:55;;;;;;;8.48;5.38;;;20.90;99.90;;;;;;5134008;28;20026;-75
2023/07/18 01:43:22;;;;;;;8.40;4.28;;;20.90;99.90;;;;;;5134008;28;20472;-75
2023/07/18 01:45:48;;;;;;;10.32;4.63;;;20.90;99.90;;;;;;5133834;28;20027;-75
2023/07/18 01:48:13;;;;;;;8.30;4.88;;;20.90;99.90;;;;;;5133691;28;20091;-75
2023/07/18 01:50:40;;;;;;;8.20;4.28;;;20.80;99.90;;;;;;5133703;28;20027;-75
2023/07/18 01:53:06;;;;;;;7.18;4.65;;;20.80;99.90;;;;;;5115610;28;20027;-75
2023/07/18 01:55:32;;;;;;;8.23;4.13;;;20.80;99.90;;;;;;5134972;27;20054;-75
2023/07/18 01:57:57;;;;;;;7.85;4.50;;;20.70;99.90;;;;;;5137355;27;20050;-75
2023/07/18 02:00:24;;;;;;;7.65;4.38;;;20.80;99.90;;;;;;5137359;27;20034;-75
2023/07/18 02:02:52;;;;;;;6.53;4.45;;;20.70;99.90;;;;;;5137548;27;20034;-75
2023/07/18 02:05:20;;;;;;;7.93;4.22;;;20.60;99.90;;;;;;5137404;27;20020;-75
2023/07/18 02:07:46;;;;;;;5.90;4.75;;;20.50;99.90;;;;;;5137413;27;20480;-75
2023/07/18 02:10:13;;;;;;;6.45;4.05;;;20.50;99.90;;;;;;5137246;27;20483;-75
2023/07/18 02:12:42;;;;;;;6.38;4.32;;;20.40;99.90;;;;;;5137123;27;20026;-75
2023/07/18 02:15:08;;;;;;;7.35;4.75;;;20.40;99.90;;;;;;5137096;27;20023;-75
2023/07/18 02:17:34;;;;;;;5.72;4.00;;;20.40;99.90;;;;;;5137381;27;20431;-75
2023/07/18 02:20:05;;;;;;;5.43;3.65;;;20.40;99.90;;;;;;5119015;27;20035;-75
2023/07/18 02:22:33;;;;;;;7.68;4.55;;;20.30;99.90;;;;;;5136886;27;20092;-75
2023/07/18 02:24:59;;;;;;;7.43;4.18;;;20.30;99.90;;;;;;5118408;27;20072;-75
2023/07/18 02:27:24;;;;;;;6.70;4.47;;;20.30;99.90;;;;;;5137138;27;20027;-75
2023/07/18 02:29:50;;;;;;;5.07;3.90;;;20.30;99.90;;;;;;5137349;27;20031;-75
2023/07/18 02:32:16;;;;;;;6.82;4.38;;;20.30;99.90;;;;;;5118617;27;20093;-75
2023/07/18 02:34:43;;;;;;;6.78;4.10;;;20.20;99.90;;;;;;5150266;27;20400;-75
2023/07/18 02:37:09;;;;;;;6.20;4.40;;;20.10;99.90;;;;;;5157393;27;20023;-75
2023/07/18 02:39:38;;;;;;;6.80;4.70;;;20.10;99.90;;;;;;5157360;27;20030;-75
2023/07/18 02:42:05;;;;;;;6.68;4.47;;;20.10;99.90;;;;;;5157228;27;20018;-75
2023/07/18 02:44:30;;;;;;;5.80;4.25;;;20.00;99.90;;;;;;5157313;27;20022;-75
2023/07/18 02:46:56;;;;;;;5.28;3.78;;;20.00;99.90;;;;;;5157349;27;20033;-75
2023/07/18 02:49:22;;;;;;;6.15;4.32;;;20.00;99.90;;;;;;5157103;27;20035;-75
2023/07/18 02:51:47;;;;;;;6.82;4.68;;;19.90;99.90;;;;;;5157108;27;20038;-75
2023/07/18 02:54:13;;;;;;;7.60;4.40;;;19.80;99.90;;;;;;5157050;27;20110;-75
2023/07/18 02:56:39;;;;;;;8.43;4.30;;;19.60;99.90;;;;;;5136616;27;20039;-75
2023/07/18 02:59:05;;;;;;;7.95;5.20;;;19.50;99.90;;;;;;5136738;27;20031;-75
2023/07/18 03:01:30;;;;;;;7.55;4.40;;;19.50;99.90;;;;;;5136148;27;20441;-75
2023/07/18 03:03:56;;;;;;;8.02;4.88;;;19.40;99.90;;;;;;5136186;27;20053;-75
2023/07/18 03:06:23;;;;;;;6.95;5.00;;;19.40;99.90;;;;;;5135495;27;20023;-75
2023/07/18 03:08:50;;;;;;;7.53;4.60;;;19.40;99.90;;;;;;5135623;27;20027;-75
2023/07/18 03:11:17;;;;;;;11.73;4.97;;;19.30;99.90;;;;;;5136219;27;20035;-75
2023/07/18 03:13:42;;;;;;;7.30;4.57;;;19.20;99.90;;;;;;5135919;27;20384;-75
2023/07/18 03:16:08;;;;;;;8.23;4.57;;;19.00;99.90;;;;;;5136192;27;20110;-75
2023/07/18 03:18:34;;;;;;;6.93;4.53;;;18.90;99.90;;;;;;5135824;27;20430;-75
2023/07/18 03:20:59;;;;;;;6.32;4.63;;;18.90;99.90;;;;;;5136401;27;20031;-75
2023/07/18 03:23:26;;;;;;;6.45;4.72;;;18.80;99.90;;;;;;5135703;27;20102;-75
2023/07/18 03:25:51;;;;;;;5.80;4.57;;;18.80;99.90;;;;;;5135769;27;20026;-75
2023/07/18 03:28:18;;;;;;;6.85;4.22;;;18.80;99.90;;;;;;5135293;27;20027;-75
2023/07/18 03:30:43;;;;;;;7.50;4.45;;;18.70;99.90;;;;;;5136081;27;20037;-75
2023/07/18 03:33:09;;;;;;;5.82;4.47;;;18.70;99.90;;;;;;5135411;27;20110;-74
2023/07/18 03:35:35;;;;;;;6.00;4.15;;;18.60;99.90;;;;;;5135777;27;20033;-75
2023/07/18 03:38:01;;;;;;;9.07;5.30;;;18.60;99.90;;;;;;5117001;27;20027;-75
2023/07/18 03:40:26;;;;;;;6.55;4.45;;;18.60;99.90;;;;;;5135345;27;20075;-75
2023/07/18 03:42:52;;;;;;;8.25;4.70;;;18.60;99.90;;;;;;5135332;27;20028;-75
2023/07/18 03:45:18;;;;;;;8.30;4.55;;;18.50;99.90;;;;;;5135376;27;20034;-75
2023/07/18 03:47:44;;;;;;;7.22;4.70;;;18.50;99.90;;;;;;5135475;27;20033;-75
2023/07/18 03:50:12;;;;;;;7.40;4.93;;;18.40;99.90;;;;;;5135430;27;20033;-75
2023/07/18 03:52:38;;;;;;;5.97;4.25;;;18.40;99.90;;;;;;5134995;27;20023;-75
2023/07/18 03:55:04;;;;;;;6.72;4.40;;;18.40;99.90;;;;;;5135638;27;20488;-74
2023/07/18 03:57:34;;;;;;;7.75;5.20;;;18.30;99.90;;;;;;5135068;27;20058;-74
2023/07/18 04:00:03;;;;;;;8.10;5.22;;;18.20;99.90;;;;;;5135239;27;20041;-74
2023/07/18 04:02:29;;;;;;;6.60;4.72;;;18.20;99.90;;;;;;5133955;27;20033;-74
2023/07/18 04:04:54;;;;;;;6.65;4.72;;;18.20;99.90;;;;;;5116549;27;20020;-74
2023/07/18 04:07:21;;;;;;;7.55;4.45;;;18.20;99.90;;;;;;5134985;27;20019;-75
2023/07/18 04:09:46;;;;;;;6.32;4.50;;;18.20;99.90;;;;;;5134919;27;20481;-75
2023/07/18 04:12:13;;;;;;;7.40;4.88;;;18.20;99.90;;;;;;5134686;27;20068;-75
2023/07/18 04:14:41;;;;;;;6.75;4.45;;;18.20;99.90;;;;;;5134747;27;20511;-75
2023/07/18 04:17:07;;;;;;;6.13;4.90;;;18.20;99.90;;;;;;5134655;27;20027;-75
2023/07/18 04:19:32;;;;;;;6.63;4.60;;;18.10;99.90;;;;;;5134363;27;20388;-72
2023/07/18 04:21:58;;;;;;;6.22;4.63;;;18.00;99.90;;;;;;5135112;27;20020;-74
2023/07/18 04:24:24;;;;;;;9.18;4.55;;;18.00;99.90;;;;;;5134628;27;20034;-74
2023/07/18 04:26:50;;;;;;;8.50;5.53;;;18.00;99.90;;;;;;5116228;27;20035;-74
2023/07/18 04:29:17;;;;;;;9.70;5.10;;;18.00;99.90;;;;;;5149736;27;20023;-74
2023/07/18 04:31:42;;;;;;;8.80;4.80;;;18.00;99.90;;;;;;5155382;27;20022;-74
2023/07/18 04:34:08;;;;;;;5.93;4.57;;;17.90;99.90;;;;;;5155082;27;20498;-75
2023/07/18 04:36:34;;;;;;;9.70;5.53;;;17.90;99.90;;;;;;5137079;27;20117;-74
2023/07/18 04:38:59;;;;;;;10.13;5.13;;;17.90;99.90;;;;;;5136662;27;20034;-74
2023/07/18 04:41:25;;;;;;;9.32;5.10;;;17.90;99.90;;;;;;5154975;27;20019;-74
2023/07/18 04:43:51;;;;;;;7.05;4.47;;;18.00;99.90;;;;;;5136930;27;20018;-74
2023/07/18 04:46:16;;;;;;;7.93;4.85;;;18.10;99.90;;;;;;5155151;27;20019;-75
2023/07/18 04:48:42;;;;;;;8.65;5.45;;;18.20;99.90;;;;;;5136556;27;20038;-75
2023/07/18 04:51:08;;;;;;;8.98;4.80;;;18.20;99.90;;;;;;5155074;27;20508;-75
2023/07/18 04:53:35;;;;;;;7.63;4.82;;;18.20;99.90;;;;;;5155184;27;20098;-75
2023/07/18 04:56:01;;;;;;;9.93;5.40;;;18.30;99.90;;;;;;5155014;27;20031;-75
2023/07/18 04:58:27;;;;;;;8.20;5.13;;;18.30;99.90;;;;;;5154913;27;20504;-75
2023/07/18 05:00:55;;;;;;;7.30;4.82;;;18.30;99.90;;;;;;5150617;27;20026;-75
2023/07/18 05:03:24;;;;;;;9.00;5.22;;;18.30;99.90;;;;;;5134123;28;20034;-75
2023/07/18 05:05:50;;;;;;;7.55;5.28;;;18.30;99.90;;;;;;5134096;28;20501;-75
2023/07/18 05:08:20;;;;;;;9.75;5.47;;;18.30;99.90;;;;;;5134242;28;20042;-75
2023/07/18 05:10:46;;;;;;;7.80;4.97;;;18.30;99.90;;;;;;5134075;28;20027;-75
2023/07/18 05:13:11;;;;;;;7.15;4.63;;;18.30;99.90;;;;;;5134045;28;20433;-74
2023/07/18 05:15:37;;;;;;;9.65;5.45;;;18.30;99.90;;;;;;5134101;28;20027;-75
2023/07/18 05:18:03;;;;;;;7.85;5.30;;;18.30;99.90;;;;;;5134003;28;20106;-75
2023/07/18 05:20:30;;;;;;;7.53;5.07;;;18.40;99.90;;;;;;5134081;28;20549;-75
2023/07/18 05:22:56;;;;;;;8.35;5.20;;;18.40;99.90;;;;;;5116295;28;20484;-75
2023/07/18 05:25:21;;;;;;;8.18;4.78;;;18.50;99.90;;;;;;5134000;28;20031;-75
2023/07/18 05:27:47;;;;;;;6.40;4.53;;;18.50;99.90;;;;;;5133629;28;20019;-74
2023/07/18 05:30:17;;;;;;;13.45;5.10;;;18.70;99.90;;;;;;5112215;28;20032;-74
2023/07/18 05:32:44;;;;;;;7.30;4.90;;;18.70;99.90;;;;;;5117560;28;20464;-74
2023/07/18 05:35:13;;;;;;;8.85;5.03;;;18.80;99.90;;;;;;5125543;27;20265;-74
2023/07/18 05:37:40;;;;;;;13.93;5.28;;;18.80;99.90;;;;;;5119093;27;20035;-75
2023/07/18 05:40:10;;;;;;;9.35;5.40;;;18.90;99.90;;;;;;5137464;27;20027;-75
2023/07/18 05:42:39;;;;;;;7.53;5.38;;;18.90;99.90;;;;;;5136985;27;20067;-74
2023/07/18 05:45:07;;;;;;;10.88;5.50;;;18.90;99.90;;;;;;5137770;27;20140;-73
2023/07/18 05:47:34;;;;;;;7.47;5.05;;;19.00;99.90;;;;;;5117662;27;20430;-74
2023/07/18 05:50:00;;;;;;;9.30;5.28;;;19.10;99.90;;;;;;5137701;27;20477;-72
2023/07/18 05:52:25;;;;;;;9.10;5.57;;;19.10;99.90;;;;;;5137465;27;20026;-73
2023/07/18 05:54:51;;;;;;;6.57;4.57;;;19.20;99.90;;;;;;5136725;27;20525;-72
2023/07/18 05:57:17;;;;;;;9.57;5.25;;;19.30;99.90;;;;;;5137483;27;20043;-73
2023/07/18 05:59:42;;;;;;;6.75;4.80;;;19.30;99.90;;;;;;5118069;27;20038;-72
2023/07/18 06:02:08;;;;;;;8.07;5.05;;;19.40;99.90;;;;;;5118409;27;20024;-73
2023/07/18 06:04:36;;;;;;;7.03;5.07;;;19.50;99.90;;;;;;5136867;27;20024;-72
2023/07/18 06:07:02;;;;;;;6.72;4.88;;;19.50;99.90;;;;;;5137383;27;20022;-72
2023/07/18 06:09:28;;;;;;;8.02;4.82;;;19.60;99.90;;;;;;5137322;27;20471;-72
2023/07/18 06:11:54;;;;;;;8.57;4.93;;;19.70;99.90;;;;;;5137229;27;20072;-72
2023/07/18 06:14:19;;;;;;;8.23;5.47;;;19.80;99.90;;;;;;5137233;27;20075;-72
2023/07/18 06:16:46;;;;;;;10.35;5.53;;;19.90;99.90;;;;;;5137154;27;20023;-72
2023/07/18 06:19:12;;;;;;;6.72;4.93;;;19.90;99.90;;;;;;5143212;27;20068;-72
2023/07/18 06:21:38;;;;;;;7.32;5.25;;;19.90;99.90;;;;;;5157752;27;20102;-72
2023/07/18 06:24:05;;;;;;;9.25;4.90;;;20.00;99.90;;;;;;5139190;27;20019;-72
2023/07/18 06:26:30;;;;;;;9.60;4.65;;;20.10;99.90;;;;;;5156808;27;20033;-72
2023/07/18 06:28:56;;;;;;;8.93;5.32;;;20.10;99.90;;;;;;5156957;27;20027;-72
2023/07/18 06:31:22;;;;;;;8.07;4.72;;;20.10;99.90;;;;;;5157506;27;20022;-72
2023/07/18 06:33:48;;;;;;;7.68;4.82;;;20.10;99.90;;;;;;5157837;27;20030;-72
2023/07/18 06:36:15;;;;;;;10.93;5.05;;;20.20;99.90;;;;;;5138969;27;20038;-72
2023/07/18 06:38:41;;;;;;;7.18;4.70;;;20.30;99.90;;;;;;5157460;27;20476;-72
2023/07/18 06:41:06;;;;;;;7.63;5.05;;;20.30;99.90;;;;;;5144530;27;20023;-72
2023/07/18 06:43:32;;;;;;;5.63;4.35;;;20.40;99.90;;;;;;5135251;27;20477;-73
2023/07/18 06:45:58;;;;;;;9.13;5.38;;;20.40;99.90;;;;;;5135803;27;20463;-73
2023/07/18 06:48:25;;;;;;;7.38;5.28;;;20.50;99.90;;;;;;5136500;27;20058;-73
2023/07/18 06:50:53;;;;;;;8.77;5.30;;;20.60;99.90;;;;;;5136360;27;20098;-72
2023/07/18 06:53:21;;;;;;;7.35;5.00;;;20.70;99.90;;;;;;5135394;27;20051;-73
2023/07/18 06:55:48;;;;;;;10.43;5.28;;;20.80;99.90;;;;;;5157709;27;20026;-72
2023/07/18 06:58:17;;;;;;;7.05;5.60;;;20.90;99.90;;;;;;5156967;27;20018;-73
2023/07/18 07:00:44;;;;;;;10.02;5.63;;;20.90;99.90;;;;;;5157212;27;20492;-73
2023/07/18 07:03:11;;;;;;;7.30;4.68;;;20.90;99.90;;;;;;5156959;27;20082;-72
2023/07/18 07:05:38;;;;;;;7.70;5.47;;;20.90;99.90;;;;;;5156996;27;20086;-72
2023/07/18 07:08:08;;;;;;;8.40;5.22;;;21.00;99.90;;;;;;5157100;27;20027;-72
2023/07/18 07:10:43;;;;;;;7.55;5.03;;;21.00;99.90;;;;;;5139120;27;20029;-73
2023/07/18 07:13:09;;;;;;;8.55;5.15;;;21.10;99.90;;;;;;5138567;27;20468;-72
2023/07/18 07:15:35;;;;;;;7.97;4.97;;;21.10;99.90;;;;;;5157019;27;20110;-72
2023/07/18 07:18:02;;;;;;;7.63;5.07;;;21.20;99.90;;;;;;5156541;27;20089;-73
2023/07/18 07:20:33;;;;;;;10.07;5.05;;;21.30;99.90;;;;;;5156696;27;20023;-72
2023/07/18 07:22:59;;;;;;;7.70;5.20;;;21.40;99.90;;;;;;5156688;27;20361;-72
2023/07/18 07:25:30;;;;;;;6.78;4.78;;;21.50;99.90;;;;;;5138812;27;20088;-73
2023/07/18 07:27:56;;;;;;;7.72;4.88;;;21.60;99.90;;;;;;5156560;27;20014;-73
2023/07/18 07:30:22;;;;;;;10.70;6.25;;;21.70;99.90;;;;;;5156388;27;20443;-72
2023/07/18 07:32:53;;;;;;;9.95;5.45;;;21.80;99.90;;;;;;5156386;27;20027;-72
2023/07/18 07:35:19;;;;;;;9.98;5.68;;;22.00;99.90;;;;;;5156417;27;20078;-73
2023/07/18 07:37:46;;;;;;;8.50;5.10;;;22.10;99.90;;;;;;5156274;27;20055;-73
2023/07/18 07:40:12;;;;;;;9.82;5.78;;;22.20;99.90;;;;;;5156146;27;20097;-73
2023/07/18 07:42:39;;;;;;;9.07;5.80;;;22.40;99.90;;;;;;5155956;27;20484;-73
2023/07/18 07:45:06;;;;;;;8.23;5.47;;;22.50;99.90;;;;;;5156033;27;20049;-73
2023/07/18 07:47:33;;;;;;;8.25;5.55;;;22.60;99.90;;;;;;5156019;27;20022;-73
2023/07/18 07:49:58;;;;;;;8.05;5.60;;;22.70;99.90;;;;;;5156270;27;20034;-73
2023/07/18 07:52:24;;;;;;;10.18;5.90;;;22.80;99.90;;;;;;5155664;27;20035;-73
2023/07/18 07:54:49;;;;;;;12.18;6.00;;;22.90;99.90;;;;;;5155509;27;20614;-73
2023/07/18 07:57:15;;;;;;;8.52;6.03;;;23.00;99.90;;;;;;5133699;27;20031;-73
2023/07/18 07:59:42;;;;;;;8.20;5.47;;;23.10;99.90;;;;;;5115912;27;20027;-73
2023/07/18 08:02:08;;;;;;;7.93;5.47;;;23.20;99.90;;;;;;5135150;27;20019;-72
2023/07/18 08:04:34;;;;;;;11.07;6.07;;;23.40;99.90;;;;;;5134980;27;20034;-73
2023/07/18 08:06:59;;;;;;;8.15;5.78;;;23.50;99.90;;;;;;5135261;27;20038;-73
2023/07/18 08:09:25;;;;;;;8.30;5.25;;;23.70;99.90;;;;;;5117015;27;20033;-73
2023/07/18 08:11:51;;;;;;;7.47;5.32;;;23.90;99.90;;;;;;5135496;27;20028;-73
2023/07/18 08:14:17;;;;;;;7.13;5.15;;;24.00;99.90;;;;;;5116396;27;20059;-73
2023/07/18 08:16:43;;;;;;;7.78;5.00;;;24.10;99.90;;;;;;5135581;27;20023;-73
2023/07/18 08:19:09;;;;;;;10.50;6.85;;;24.20;99.90;;;;;;5136094;27;20083;-73
2023/07/18 08:21:35;;;;;;;7.90;5.55;;;24.30;99.90;;;;;;5136000;27;20031;-73
2023/07/18 08:24:01;;;;;;;8.57;7.00;;;24.40;99.90;;;;;;5135323;27;20068;-73
2023/07/18 08:26:26;;;;;;;8.65;6.22;;;24.60;99.90;;;;;;5135247;27;20030;-73
2023/07/18 08:28:52;;;;;;;8.48;6.03;;;24.70;99.90;;;;;;5134966;27;20110;-73
2023/07/18 08:31:19;;;;;;;10.10;6.28;;;24.80;99.90;;;;;;5116577;27;20019;-73
2023/07/18 08:33:45;;;;;;;8.43;6.07;;;25.00;99.90;;;;;;5134586;27;20537;-73
2023/07/18 08:36:11;;;;;;;8.95;5.80;;;25.00;99.90;;;;;;5134783;27;20023;-73
2023/07/18 08:38:37;;;;;;;9.50;6.13;;;25.20;99.90;;;;;;5134700;27;20024;-73
2023/07/18 08:41:03;;;;;;;9.02;6.35;;;25.30;99.90;;;;;;5134565;27;20026;-73
2023/07/18 08:43:30;;;;;;;9.60;6.53;;;25.40;99.90;;;;;;5135044;27;20034;-73
2023/07/18 08:45:57;;;;;;;9.10;6.75;;;25.50;99.90;;;;;;5134748;27;20024;-73
2023/07/18 08:48:26;;;;;;;9.13;5.70;;;25.50;99.90;;;;;;5134414;27;20035;-73
2023/07/18 08:50:53;;;;;;;10.20;6.00;;;25.60;99.90;;;;;;5115689;27;20114;-74
2023/07/18 08:53:20;;;;;;;8.77;5.40;;;25.70;99.90;;;;;;5152559;27;20050;-74
2023/07/18 08:55:46;;;;;;;9.73;5.85;;;25.90;99.90;;;;;;5155135;27;20480;-73
2023/07/18 08:58:12;;;;;;;7.93;5.13;;;26.00;99.90;;;;;;5151259;27;20042;-74
2023/07/18 09:00:38;;;;;;;9.18;5.72;;;26.10;99.90;;;;;;5134637;28;20019;-74
2023/07/18 09:03:04;;;;;;;8.50;5.75;;;26.10;99.90;;;;;;5134329;28;20479;-73
2023/07/18 09:05:34;;;;;;;7.88;4.97;;;26.20;99.20;;;;;;5135545;27;20088;-73
2023/07/18 09:08:01;;;;;;;9.38;5.95;;;26.30;99.10;;;;;;5138408;27;20491;-73
2023/07/18 09:10:27;;;;;;;7.18;5.15;;;26.40;99.20;;;;;;5138753;27;20028;-73
2023/07/18 09:13:03;;;;;;;7.57;4.55;;;26.50;98.50;;;;;;5138285;27;20019;-72
2023/07/18 09:15:32;;;;;;;6.88;5.22;;;26.60;99.30;;;;;;5138403;27;20034;-73
2023/07/18 09:17:59;;;;;;;6.75;5.28;;;26.70;98.30;;;;;;5138087;27;20023;-73
2023/07/18 09:20:26;;;;;;;7.55;4.80;;;26.70;97.10;;;;;;5138709;27;20110;-73
2023/07/18 09:22:57;;;;;;;6.47;4.97;;;26.80;97.50;;;;;;5119732;27;20034;-73
2023/07/18 09:25:24;;;;;;;8.85;5.57;;;26.80;97.60;;;;;;5138133;27;20020;-73
2023/07/18 09:27:54;;;;;;;7.15;4.35;;;27.00;96.90;;;;;;5138365;27;20072;-74
2023/07/18 09:30:28;;;;;;;6.18;4.75;;;27.00;97.50;;;;;;5138080;27;20059;-73
2023/07/18 09:32:54;;;;;;;7.20;4.50;;;27.00;96.40;;;;;;5138025;27;20027;-73
2023/07/18 09:35:20;;;;;;;6.43;4.80;;;27.20;96.50;;;;;;5119844;27;20062;-73
2023/07/18 09:37:47;;;;;;;6.65;4.50;;;27.30;96.00;;;;;;5119743;27;20065;-73
2023/07/18 09:40:17;;;;;;;7.22;4.82;;;27.30;96.90;;;;;;5138125;27;20035;-73
2023/07/18 09:42:44;;;;;;;10.10;5.40;;;27.40;96.40;;;;;;5137956;27;20023;-73
2023/07/18 09:45:15;;;;;;;7.22;5.00;;;27.60;96.80;;;;;;5137975;27;20023;-73
2023/07/18 09:47:42;;;;;;;5.93;4.68;;;27.70;96.30;;;;;;5137857;27;20437;-75
2023/07/18 09:50:12;;;;;;;7.70;4.30;;;27.80;96.00;;;;;;5137969;27;20031;-73
2023/07/18 09:52:46;;;;;;;13.93;5.27;;;28.00;95.70;;;;;;5137592;27;20023;-73
2023/07/18 09:55:14;;;;;;;7.35;4.40;;;28.20;95.90;;;;;;5138147;27;20023;-73
2023/07/18 09:57:46;;;;;;;8.80;4.90;;;28.30;95.20;;;;;;5137494;27;20110;-73
2023/07/18 10:00:12;;;;;;;10.30;5.45;;;28.40;94.50;;;;;;5137518;27;20472;-73
2023/07/18 10:02:41;;;;;;;7.00;4.65;;;28.40;94.30;;;;;;5137385;27;20047;-73
2023/07/18 10:05:11;;;;;;;6.18;4.50;;;28.50;94.00;;;;;;5137670;27;20024;-73
2023/07/18 10:07:38;;;;;;;6.82;4.53;;;28.50;92.60;;;;;;5119833;27;20026;-74
2023/07/18 10:10:08;;;;;;;8.30;4.70;;;28.70;93.60;;;;;;5137282;27;20062;-74
2023/07/18 10:12:58;;;;;;;7.57;3.97;;;28.80;92.70;;;;;;5137127;27;20023;-73
2023/07/18 10:15:24;;;;;;;10.13;4.25;;;28.90;90.50;;;;;;5125056;27;20035;-74
2023/07/18 10:17:50;;;;;;;19.15;4.65;;;29.00;90.40;;;;;;5136701;27;20079;-74
2023/07/18 10:20:34;;;;;;;6.57;3.53;;;29.20;89.00;;;;;;5137066;27;20565;-74
2023/07/18 10:23:00;;;;;;;4.80;4.05;;;29.30;88.00;;;;;;5137257;27;20055;-74
2023/07/18 10:25:31;;;;;;;7.10;4.88;;;29.50;87.80;;;;;;5137593;27;20106;-74
2023/07/18 10:27:58;;;;;;;6.65;4.78;;;29.60;89.00;;;;;;5137233;27;20023;-74
2023/07/18 10:30:35;;;;;;;6.20;4.30;;;29.70;90.30;;;;;;5137496;27;20023;-74
2023/07/18 10:33:03;;;;;;;6.72;4.53;;;29.80;90.20;;;;;;5136879;27;20369;-74
2023/07/18 10:35:29;;;;;;;6.43;4.22;;;29.90;90.00;;;;;;5136820;27;20019;-73
2023/07/18 10:38:09;;;;;;;6.00;4.40;;;30.00;90.00;;;;;;5137040;27;20027;-74
2023/07/18 10:40:39;;;;;;;6.37;4.30;;;30.10;87.40;;;;;;5136751;27;20392;-74
2023/07/18 10:43:16;;;;;;;29.90;6.13;;;30.20;88.00;;;;;;5136897;27;20722;-73
2023/07/18 10:45:42;;;;;;;13.07;5.00;;;30.30;84.80;;;;;;5139125;27;20060;-74
2023/07/18 10:48:20;;;;;;;16.17;5.40;;;30.40;86.60;;;;;;5144138;27;20027;-74
2023/07/18 10:50:48;;;;;;;10.93;4.40;;;30.50;85.60;;;;;;5136375;27;20027;-74
2023/07/18 10:53:18;;;;;;;14.25;5.05;;;30.50;85.60;;;;;;5136029;27;20027;-74
2023/07/18 10:55:45;;;;;;;;;;;30.60;85.60;;;;;;5136589;27;20031;-74
2023/07/18 10:58:15;;;;;;;;;;;30.80;82.80;;;;;;5136711;27;19907;-74
2023/07/18 11:00:41;;;;;;;;;;;30.90;84.70;;;;;;5136733;27;19914;-74
2023/07/18 11:03:07;;;;;;;;;;;30.90;83.80;;;;;;5137195;27;19908;-74
2023/07/18 11:05:33;;;;;;;;;;;31.00;82.90;;;;;;5118635;27;19907;-74
2023/07/18 11:07:59;;;;;;;;;;;31.10;82.80;;;;;;5136582;27;20373;-74
2023/07/18 11:10:25;;;;;;;;;;;31.30;83.90;;;;;;5136610;27;19933;-74
2023/07/18 11:12:51;;;;;;;;;;;31.30;81.30;;;;;;5136426;27;19973;-74
2023/07/18 11:15:21;;;;;;;;;;;31.40;81.20;;;;;;5136417;27;19904;-74
2023/07/18 11:17:46;;;;;;;;;;;31.40;80.50;;;;;;5117925;27;19903;-74
2023/07/18 11:20:12;;;;;;;;;;;31.50;80.90;;;;;;5136402;27;20261;-74
2023/07/18 11:22:38;;;;;;;;;;;31.60;79.10;;;;;;5136245;27;19907;-74
2023/07/18 11:25:04;;;;;;;;;;;31.70;77.90;;;;;;5136124;27;19907;-74
2023/07/18 11:27:31;;;;;;;;;;;31.80;78.20;;;;;;5135596;27;20399;-74
2023/07/18 11:30:04;;;;;;;;;;;31.80;76.50;;;;;;5135915;27;19951;-74
2023/07/18 11:32:30;;;;;;;;;;;31.90;78.50;;;;;;5135964;27;19913;-74
2023/07/18 11:34:56;;;;;;;;;;;31.90;75.70;;;;;;5136009;27;19903;-74
2023/07/18 11:37:21;;;;;;;;;;;31.90;75.00;;;;;;5135924;27;19904;-73
2023/07/18 11:39:47;;;;;;;;;;;32.00;75.60;;;;;;5135746;27;19918;-74
2023/07/18 11:42:13;;;;;;;;;;;32.10;74.90;;;;;;5136143;27;20282;-74
2023/07/18 11:44:41;;;;;;;;;;;32.20;74.60;;;;;;5135821;27;20287;-74
2023/07/18 11:47:09;;;;;;;;;;;32.20;73.50;;;;;;5135780;27;19926;-74
2023/07/18 11:49:36;;;;;;;;;;;32.30;76.10;;;;;;5116618;27;19919;-74
2023/07/18 11:52:03;;;;;;;;;;;32.40;72.10;;;;;;5135095;27;19933;-75
2023/07/18 11:54:29;;;;;;;;;;;32.30;72.90;;;;;;5135654;27;19999;-75
2023/07/18 11:56:54;;;;;;;;;;;32.30;74.20;;;;;;5135637;27;19994;-74
2023/07/18 11:59:21;;;;;;;;;;;32.30;72.90;;;;;;5135470;27;20364;-75
2023/07/18 12:01:47;;;;;;;;;;;32.20;73.60;;;;;;5135742;27;19953;-75
2023/07/18 12:04:13;;;;;;;;;;;32.30;72.40;;;;;;5136057;27;19911;-75
2023/07/18 12:06:39;;;;;;;;;;;32.30;73.80;;;;;;5135373;27;19918;-74
2023/07/18 12:09:04;;;;;;;;;;;32.40;69.60;;;;;;5113297;27;19907;-74
2023/07/18 12:11:30;;;;;;;;;;;32.30;69.60;;;;;;5135097;27;19915;-74
2023/07/18 12:13:56;;;;;;;;;;;32.00;70.30;;;;;;5135305;27;19937;-74
2023/07/18 12:16:22;;;;;;;;;;;31.80;72.50;;;;;;5135915;27;19985;-74
2023/07/18 12:18:47;;;;;;;;;;;31.70;72.80;;;;;;5116874;27;19908;-74
2023/07/18 12:21:13;;;;;;;;;;;31.60;72.00;;;;;;5135810;27;19907;-73
2023/07/18 12:23:39;;;;;;;;;;;31.50;72.30;;;;;;5116862;27;19914;-74
2023/07/18 12:26:05;;;;;;;;;;;31.60;72.30;;;;;;5135135;27;19907;-74
2023/07/18 12:28:31;;;;;;;;;;;31.50;71.20;;;;;;5134950;27;19908;-74
2023/07/18 12:30:56;;;;;;;;;;;31.40;72.70;;;;;;5135009;27;19952;-74
2023/07/18 12:33:23;;;;;;;;;;;31.20;72.30;;;;;;5134892;27;20303;-75
2023/07/18 12:35:49;;;;;;;;;;;31.20;73.90;;;;;;5134141;27;19912;-74
2023/07/18 12:38:15;;;;;;;;;;;31.10;73.10;;;;;;5133385;27;20279;-74
2023/07/18 12:40:41;;;;;;;;;;;31.10;74.50;;;;;;5129410;27;19915;-74
2023/07/18 12:43:06;;;;;;;;;;;31.10;72.80;;;;;;5129692;27;19965;-74
2023/07/18 12:45:33;;;;;;;;;;;31.20;73.00;;;;;;5143151;27;19917;-74
2023/07/18 12:47:59;;;;;;;;;;;31.00;72.70;;;;;;5133437;27;20421;-74
2023/07/18 12:50:24;;;;;;;;;;;31.00;75.00;;;;;;5133904;27;19908;-74
2023/07/18 12:52:50;;;;;;;;;;;30.90;73.20;;;;;;5134879;27;19960;-74
2023/07/18 12:55:16;;;;;;;;;;;30.70;73.80;;;;;;5134765;28;19907;-74
2023/07/18 12:57:41;;;;;;;;;;;30.40;74.90;;;;;;5134461;28;19942;-74